Quick Links (Output Below):   Max & Min Temps   /   Climate Reports   /   Zone Forecasts
River Forecasts   /   Forestry Forecasts   /   Aviation Forecasts   /   Radars   /   Features

Terminal Aerodrome Forecast (El Dorado)

Pick a Site:
Arkadelphia | El Dorado | Fayetteville | Fort Smith | Harrison | Highfill | Hot Springs | Jonesboro
Little Rock | Monticello | Mountain Home | Pine Bluff | Texarkana
 Forecast 

KELD 010521Z 0106/0206 12007KT P6SM BKN035 OVC050
     FM010700 VRB03KT 3SM BR BKN015
      TEMPO 0110/0114 1SM BR OVC007
     FM011600 07005KT P6SM SCT020
     FM011800 07005KT P6SM SCT035=


 Latest METARs (Observations) 
How to Decode METARs
09Z KELD 010853Z AUTO 31004KT 6SM BR FEW011 OVC019 21/20 A2986 RMK AO2
         LTG DSNT S SLP109 T02060200 53012
         
08Z KELD 010753Z AUTO 07003KT 7SM BKN007 OVC011 21/20 A2984 RMK AO2
         LTG DSNT S AND SW CIG 005V010 SLP100 T02060200
         
07Z KELD 010653Z AUTO 00000KT 9SM FEW049 FEW060 21/20 A2984 RMK AO2
         SLP102 T02060200
         
06Z KELD 010553Z AUTO 16004KT 8SM CLR 20/19 A2983 RMK AO2 SLP098
         T02000194 10256 20194 402720178 50004
         
05Z KELD 010453Z AUTO 00000KT 7SM CLR 19/19 A2983 RMK AO2 LTG DSNT NW
         SLP099 T01940189
         
04Z KELD 010353Z AUTO 00000KT 10SM CLR 21/20 A2983 RMK AO2 SLP097
         T02060200
         
03Z KELD 010253Z AUTO 00000KT 10SM CLR 21/20 A2982 RMK AO2 SLP093
         T02060200 53025
         
02Z KELD 010153Z AUTO 12004KT 10SM CLR 22/21 A2978 RMK AO2 SLP081
         T02170206
         
01Z KELD 010053Z AUTO 12004KT 10SM CLR 23/21 A2976 RMK AO2 SLP075
         T02330206
         
00Z KELD 302353Z AUTO 12006KT 10SM CLR 26/21 A2974 RMK AO2 SLP068
         60000 T02560206 10272 20244 53004
         
***** Today's Observations (Above) *****


Back to Main Page
http://www.srh.noaa.gov/lzk/qfcst.php

USA.gov is the U.S. government's official web portal to all federal, state and local government web resources and services.